Time;durP1;ratioP1;P1;durP2;ratioP2;P2;SDS_P1;SDS_P2;PMS_P1;PMS_P2;Temp;Humidity;BMP_temperature;BMP_pressure;BME280_temperature;BME280_humidity;BME280_pressure;Samples;Min_cycle;Max_cycle;Signal;HPM_P1;HPM_P2
2021/03/24 00:01:16;;;;;;;16.70;10.40;;;6.40;87.50;;;;;;4934232;29;20218;-84
2021/03/24 00:03:44;;;;;;;18.67;11.00;;;6.40;87.60;;;;;;4937864;29;20214;-84
2021/03/24 00:06:19;;;;;;;15.47;10.37;;;6.30;87.70;;;;;;4904617;28;20280;-84
2021/03/24 00:08:47;;;;;;;14.53;10.40;;;6.30;87.80;;;;;;4907671;29;20222;-84
2021/03/24 00:11:16;;;;;;;16.33;9.80;;;6.30;87.90;;;;;;4901076;29;20203;-82
2021/03/24 00:13:44;;;;;;;14.47;10.07;;;6.30;88.00;;;;;;4919438;29;20297;-83
2021/03/24 00:16:13;;;;;;;18.57;10.70;;;6.30;87.90;;;;;;4875613;29;20231;-83
2021/03/24 00:18:41;;;;;;;18.10;10.50;;;6.30;88.00;;;;;;4909179;29;20239;-82
2021/03/24 00:21:09;;;;;;;15.97;10.53;;;6.30;88.00;;;;;;4922263;29;20206;-82
2021/03/24 00:23:37;;;;;;;19.60;11.33;;;6.30;88.10;;;;;;4919026;29;20574;-84
2021/03/24 00:26:05;;;;;;;14.90;9.63;;;6.30;88.20;;;;;;4904061;28;21095;-82
2021/03/24 00:28:33;;;;;;;17.33;9.43;;;6.40;88.00;;;;;;4914611;29;20234;-84
2021/03/24 00:31:01;;;;;;;21.97;10.40;;;6.30;87.90;;;;;;4934954;29;20211;-82
2021/03/24 00:33:29;;;;;;;14.43;9.70;;;6.30;88.10;;;;;;4945361;28;20208;-82
2021/03/24 00:35:57;;;;;;;14.43;9.53;;;6.30;88.10;;;;;;4912488;28;20214;-83
2021/03/24 00:38:26;;;;;;;16.80;9.40;;;6.20;88.30;;;;;;4920375;28;20238;-84
2021/03/24 00:40:56;;;;;;;14.20;9.43;;;6.20;88.20;;;;;;4918403;28;20266;-83
2021/03/24 00:43:25;;;;;;;16.03;9.90;;;6.10;88.50;;;;;;4917986;29;20646;-83
2021/03/24 00:45:54;;;;;;;19.27;10.03;;;6.10;88.80;;;;;;4895807;28;20261;-81
2021/03/24 00:48:27;;;;;;;15.43;10.40;;;6.10;88.90;;;;;;4904906;29;20241;-85
2021/03/24 00:50:56;;;;;;;14.27;9.00;;;6.10;89.10;;;;;;4919147;29;20214;-83
2021/03/24 00:53:24;;;;;;;17.90;10.00;;;6.00;89.10;;;;;;4913914;29;20243;-82
2021/03/24 00:55:52;;;;;;;14.47;8.90;;;6.00;89.10;;;;;;4898877;29;20488;-84
2021/03/24 00:58:21;;;;;;;13.00;9.57;;;6.00;89.30;;;;;;4907972;29;20249;-85
2021/03/24 01:00:50;;;;;;;18.23;10.10;;;5.90;89.20;;;;;;4916658;29;20316;-83
2021/03/24 01:03:19;;;;;;;14.47;9.07;;;5.90;89.40;;;;;;4927332;29;20281;-84
2021/03/24 01:05:48;;;;;;;13.27;8.90;;;5.90;89.50;;;;;;4901234;28;20787;-84
2021/03/24 01:08:23;;;;;;;14.50;9.80;;;5.90;89.60;;;;;;4936581;28;20494;-83
2021/03/24 01:10:53;;;;;;;17.63;9.80;;;5.90;89.70;;;;;;4925486;28;20397;-83
2021/03/24 01:13:23;;;;;;;16.63;9.93;;;5.80;90.10;;;;;;4942605;28;20219;-83
2021/03/24 01:15:54;;;;;;;13.60;9.23;;;5.80;90.00;;;;;;4915678;28;20276;-82
2021/03/24 01:18:24;;;;;;;17.10;10.13;;;5.80;90.00;;;;;;4929969;28;20445;-83
2021/03/24 01:20:53;;;;;;;14.90;9.37;;;5.80;90.00;;;;;;4931823;29;20267;-81
2021/03/24 01:23:22;;;;;;;13.00;9.10;;;5.90;90.10;;;;;;4902472;29;20638;-85
2021/03/24 01:25:53;;;;;;;18.70;9.17;;;5.70;90.20;;;;;;4894650;28;20736;-84
2021/03/24 01:28:28;;;;;;;16.00;9.20;;;5.80;90.10;;;;;;4920094;29;20234;-82
2021/03/24 01:30:57;;;;;;;15.67;9.57;;;5.80;90.10;;;;;;4921717;29;20671;-84
2021/03/24 01:33:27;;;;;;;17.57;9.70;;;5.70;90.10;;;;;;4927445;29;20202;-82
2021/03/24 01:35:56;;;;;;;11.63;8.90;;;5.70;90.20;;;;;;4901208;28;20218;-83
2021/03/24 01:38:25;;;;;;;16.13;9.30;;;5.70;90.20;;;;;;4916842;29;20313;-82
2021/03/24 01:40:56;;;;;;;12.10;8.63;;;5.60;90.20;;;;;;4926160;29;20286;-82
2021/03/24 01:43:27;;;;;;;14.40;8.67;;;5.70;90.30;;;;;;4916773;29;20206;-83
2021/03/24 01:46:25;;;;;;;19.20;9.47;;;5.80;90.20;;;;;;4895267;28;20376;-82
2021/03/24 01:48:56;;;;;;;13.83;8.87;;;5.90;90.20;;;;;;4919006;29;20265;-83
2021/03/24 01:51:27;;;;;;;15.17;8.63;;;5.70;90.20;;;;;;4921197;29;20206;-83
2021/03/24 01:53:55;;;;;;;12.80;8.93;;;5.70;90.30;;;;;;4904471;29;20622;-82
2021/03/24 01:56:24;;;;;;;16.23;9.07;;;5.70;90.30;;;;;;4885528;29;20872;-82
2021/03/24 01:58:54;;;;;;;15.90;9.73;;;5.70;90.30;;;;;;4905732;28;20210;-83
2021/03/24 02:01:23;;;;;;;17.00;9.17;;;5.80;90.30;;;;;;4910186;28;20280;-84
2021/03/24 02:03:52;;;;;;;17.00;8.67;;;5.70;90.20;;;;;;4919682;29;20238;-83
2021/03/24 02:06:26;;;;;;;16.33;8.93;;;5.70;90.00;;;;;;4888116;29;20236;-83
2021/03/24 02:09:03;;;;;;;15.17;8.70;;;5.70;89.80;;;;;;4923423;29;20634;-84
2021/03/24 02:11:36;;;;;;;16.30;8.77;;;5.70;89.70;;;;;;4920693;29;20289;-83
2021/03/24 02:14:11;;;;;;;14.10;8.53;;;5.60;89.60;;;;;;4921240;29;20566;-82
2021/03/24 02:16:43;;;;;;;14.03;7.37;;;5.60;89.80;;;;;;4886057;29;20229;-85
2021/03/24 02:19:37;;;;;;;15.97;8.40;;;5.50;90.00;;;;;;4922230;29;20237;-84
2021/03/24 02:22:08;;;;;;;14.20;7.90;;;5.60;90.00;;;;;;4922295;29;20217;-83
2021/03/24 02:24:51;;;;;;;14.83;7.57;;;5.50;89.90;;;;;;4930524;29;20231;-83
2021/03/24 02:27:23;;;;;;;13.20;7.53;;;5.50;90.00;;;;;;4894369;29;20218;-82
2021/03/24 02:29:55;;;;;;;19.17;8.13;;;5.40;90.00;;;;;;4932160;29;20214;-82
2021/03/24 02:32:31;;;;;;;14.47;7.83;;;5.40;90.00;;;;;;4941422;29;20203;-83
2021/03/24 02:35:05;;;;;;;13.50;7.77;;;5.40;90.10;;;;;;4932107;29;20273;-84
2021/03/24 02:37:34;;;;;;;14.57;7.93;;;5.30;90.20;;;;;;4926342;29;20230;-82
2021/03/24 02:40:07;;;;;;;13.13;7.63;;;5.30;90.30;;;;;;4944287;28;20222;-83
2021/03/24 02:42:36;;;;;;;10.07;5.87;;;5.30;90.30;;;;;;4933987;29;20230;-83
2021/03/24 02:45:06;;;;;;;12.83;6.20;;;5.30;90.20;;;;;;4925830;28;20199;-83
2021/03/24 02:47:34;;;;;;;13.90;7.13;;;5.30;90.30;;;;;;4921426;29;20217;-84
2021/03/24 02:50:02;;;;;;;13.90;7.13;;;5.30;90.10;;;;;;4921355;29;20210;-83
2021/03/24 02:52:30;;;;;;;12.10;6.93;;;5.30;90.00;;;;;;4936910;29;20198;-81
2021/03/24 02:54:59;;;;;;;12.30;6.90;;;5.20;90.00;;;;;;4927847;28;20206;-84
2021/03/24 02:57:31;;;;;;;12.10;6.90;;;5.30;90.10;;;;;;4911383;28;20452;-83
2021/03/24 03:00:00;;;;;;;16.63;8.10;;;5.20;90.10;;;;;;4939327;29;20214;-80
2021/03/24 03:02:29;;;;;;;13.63;7.77;;;5.10;90.10;;;;;;4935468;29;20221;-81
2021/03/24 03:05:05;;;;;;;13.80;7.33;;;5.30;90.30;;;;;;4930993;28;20203;-83
2021/03/24 03:07:36;;;;;;;12.97;7.07;;;5.10;90.40;;;;;;4909549;29;20221;-85
2021/03/24 03:10:09;;;;;;;10.97;7.13;;;5.00;90.50;;;;;;4927135;29;20288;-83
2021/03/24 03:12:43;;;;;;;14.17;7.63;;;5.00;90.60;;;;;;4923113;29;20210;-83
2021/03/24 03:15:19;;;;;;;11.10;6.37;;;5.00;90.70;;;;;;4904530;28;20228;-84
2021/03/24 03:17:52;;;;;;;13.77;7.63;;;4.90;90.60;;;;;;4902149;29;20311;-82
2021/03/24 03:20:26;;;;;;;13.43;7.43;;;5.00;90.60;;;;;;4921931;29;20207;-82
2021/03/24 03:22:58;;;;;;;11.83;7.40;;;5.00;90.60;;;;;;4930424;29;20577;-84
2021/03/24 03:25:31;;;;;;;12.33;7.10;;;4.90;90.50;;;;;;4924372;28;20445;-84
2021/03/24 03:28:06;;;;;;;11.83;7.30;;;4.90;90.60;;;;;;4917255;29;20313;-83
2021/03/24 03:30:39;;;;;;;15.10;6.70;;;4.90;90.50;;;;;;4944670;28;20206;-85
2021/03/24 03:33:09;;;;;;;12.37;7.13;;;5.00;90.50;;;;;;4906357;29;20741;-83
2021/03/24 03:35:41;;;;;;;10.93;6.90;;;5.00;90.50;;;;;;4902930;28;20222;-84
2021/03/24 03:38:16;;;;;;;11.80;7.40;;;4.90;90.70;;;;;;4903007;29;20221;-83
2021/03/24 03:40:46;;;;;;;11.40;7.10;;;4.80;90.80;;;;;;4921579;29;20204;-83
2021/03/24 03:43:17;;;;;;;11.07;7.00;;;4.70;91.00;;;;;;4919195;29;20634;-82
2021/03/24 03:45:53;;;;;;;15.37;7.60;;;4.80;91.00;;;;;;4902639;28;20234;-84
2021/03/24 03:48:22;;;;;;;12.87;7.53;;;5.00;91.10;;;;;;4931626;28;20558;-82
2021/03/24 03:50:54;;;;;;;14.67;7.77;;;4.80;91.10;;;;;;4944323;28;20194;-83
2021/03/24 03:53:27;;;;;;;11.33;7.67;;;4.70;91.20;;;;;;4943253;28;20201;-83
2021/03/24 03:56:02;;;;;;;11.97;7.97;;;4.70;91.30;;;;;;4913282;28;20217;-83
2021/03/24 03:58:37;;;;;;;12.53;8.17;;;4.70;91.30;;;;;;4936065;28;20231;-82
2021/03/24 04:01:12;;;;;;;15.10;7.53;;;4.80;91.60;;;;;;4941413;29;20205;-83
2021/03/24 04:03:45;;;;;;;11.30;7.30;;;4.70;91.60;;;;;;4941301;28;20197;-83
2021/03/24 04:06:19;;;;;;;14.90;7.73;;;4.70;91.70;;;;;;4919141;28;20261;-82
2021/03/24 04:08:48;;;;;;;12.70;7.13;;;4.70;91.70;;;;;;4925230;28;20224;-83
2021/03/24 04:11:20;;;;;;;12.40;7.93;;;4.70;91.80;;;;;;4928184;29;20203;-82
2021/03/24 04:13:52;;;;;;;11.93;7.80;;;4.80;91.90;;;;;;4918555;29;20209;-83
2021/03/24 04:16:21;;;;;;;13.13;7.93;;;4.70;91.80;;;;;;4895280;28;20234;-83
2021/03/24 04:18:52;;;;;;;14.33;8.10;;;4.70;91.90;;;;;;4912342;29;20471;-81
2021/03/24 04:21:22;;;;;;;14.73;8.40;;;4.80;91.90;;;;;;4921666;29;20282;-81
2021/03/24 04:23:53;;;;;;;12.83;8.67;;;4.70;91.90;;;;;;4924994;29;20212;-83
2021/03/24 04:26:27;;;;;;;12.67;8.03;;;4.70;92.10;;;;;;4894121;28;20240;-83
2021/03/24 04:28:59;;;;;;;15.67;8.53;;;4.70;92.10;;;;;;4925285;29;20461;-83
2021/03/24 04:31:29;;;;;;;13.57;8.83;;;4.70;92.10;;;;;;4932905;29;20697;-81
2021/03/24 04:33:57;;;;;;;17.47;8.87;;;4.70;92.10;;;;;;4931827;29;20194;-82
2021/03/24 04:36:29;;;;;;;11.97;8.20;;;4.60;92.30;;;;;;4909436;28;20296;-84
2021/03/24 04:39:03;;;;;;;15.73;8.27;;;4.60;92.40;;;;;;4942637;28;20218;-83
2021/03/24 04:41:36;;;;;;;16.17;9.70;;;4.60;92.60;;;;;;4940329;29;20213;-82
2021/03/24 04:44:11;;;;;;;17.00;9.33;;;4.60;92.70;;;;;;4940000;29;20531;-84
2021/03/24 04:46:44;;;;;;;14.03;9.00;;;4.60;92.70;;;;;;4889273;29;20242;-83
2021/03/24 04:49:16;;;;;;;15.70;8.67;;;4.60;92.80;;;;;;4943714;29;20198;-83
2021/03/24 04:51:47;;;;;;;17.23;9.27;;;4.60;92.90;;;;;;4942921;28;20217;-84
2021/03/24 04:54:18;;;;;;;13.57;8.87;;;4.60;93.00;;;;;;4942164;28;20632;-84
2021/03/24 04:56:50;;;;;;;14.13;8.97;;;4.60;92.90;;;;;;4905148;28;20225;-82
2021/03/24 04:59:26;;;;;;;12.63;8.97;;;4.60;92.80;;;;;;4935072;29;20209;-83
2021/03/24 05:02:00;;;;;;;13.90;9.10;;;4.80;93.00;;;;;;4929441;29;20197;-84
2021/03/24 05:04:34;;;;;;;15.47;8.87;;;4.50;93.10;;;;;;4934688;29;20195;-82
2021/03/24 05:07:07;;;;;;;15.10;8.80;;;4.60;93.10;;;;;;4901544;28;20297;-83
2021/03/24 05:09:35;;;;;;;14.00;9.50;;;4.60;93.20;;;;;;4935634;29;20193;-82
2021/03/24 05:12:12;;;;;;;14.00;9.43;;;4.60;93.20;;;;;;4916910;29;20458;-82
2021/03/24 05:14:44;;;;;;;15.43;9.13;;;4.60;93.10;;;;;;4929179;29;20728;-83
2021/03/24 05:17:17;;;;;;;14.80;9.77;;;4.70;93.00;;;;;;4884478;29;20233;-81
2021/03/24 05:19:48;;;;;;;15.50;9.07;;;4.70;92.90;;;;;;4922002;29;20606;-83
2021/03/24 05:22:28;;;;;;;18.83;10.10;;;4.70;92.80;;;;;;4917562;29;20213;-84
2021/03/24 05:25:05;;;;;;;17.90;9.63;;;4.70;92.60;;;;;;4918677;28;20252;-83
2021/03/24 05:27:39;;;;;;;15.43;9.20;;;4.60;92.40;;;;;;4893641;29;20280;-82
2021/03/24 05:30:15;;;;;;;14.47;9.33;;;4.70;92.50;;;;;;4920994;29;20275;-85
2021/03/24 05:32:48;;;;;;;16.37;9.30;;;4.70;92.50;;;;;;4916364;29;20206;-83
2021/03/24 05:35:42;;;;;;;17.20;9.67;;;4.80;92.50;;;;;;4904455;28;20319;-82
2021/03/24 05:38:17;;;;;;;17.00;9.13;;;4.80;92.50;;;;;;4912591;29;20232;-84
2021/03/24 05:41:06;;;;;;;15.13;9.00;;;4.70;92.30;;;;;;4915407;29;20356;-84
2021/03/24 05:43:59;;;;;;;17.77;9.53;;;4.90;92.30;;;;;;4918845;29;20234;-85
2021/03/24 05:46:51;;;;;;;16.60;9.57;;;4.90;91.80;;;;;;4891526;28;20705;-84
2021/03/24 05:49:36;;;;;;;16.50;9.80;;;5.00;91.90;;;;;;4883685;29;20410;-82
2021/03/24 05:52:28;;;;;;;15.37;9.33;;;5.00;91.60;;;;;;4920090;29;20210;-84
2021/03/24 05:55:20;;;;;;;17.40;10.33;;;5.00;91.50;;;;;;4911852;28;20233;-84
2021/03/24 05:58:04;;;;;;;16.87;10.30;;;5.00;91.20;;;;;;4897995;29;20729;-82
2021/03/24 06:00:39;;;;;;;15.13;9.90;;;5.00;91.20;;;;;;4916450;29;20213;-84
2021/03/24 06:03:25;;;;;;;17.63;10.07;;;5.10;91.10;;;;;;4919022;28;20205;-84
2021/03/24 06:06:26;;;;;;;16.73;9.83;;;5.10;91.10;;;;;;4898021;28;20225;-82
2021/03/24 06:09:33;;;;;;;18.07;10.83;;;5.10;91.10;;;;;;4932869;29;20391;-83
2021/03/24 06:12:30;;;;;;;21.13;10.13;;;5.10;90.90;;;;;;4915822;29;20722;-84
2021/03/24 06:15:26;;;;;;;18.67;9.83;;;5.20;90.90;;;;;;4931716;29;20217;-85
2021/03/24 06:18:28;;;;;;;13.27;9.10;;;5.20;90.90;;;;;;4926483;28;20234;-83
2021/03/24 06:21:03;;;;;;;16.70;10.60;;;5.30;90.60;;;;;;4945211;28;20214;-82
2021/03/24 06:24:09;;;;;;;15.73;9.80;;;5.40;90.40;;;;;;4934283;28;20202;-84
2021/03/24 06:27:18;;;;;;;18.03;10.10;;;5.40;90.30;;;;;;4822457;29;20255;-83
2021/03/24 06:30:00;;;;;;;15.83;8.47;;;5.40;90.40;;;;;;4931525;29;20217;-81
2021/03/24 06:33:04;;;;;;;16.47;10.33;;;5.40;90.30;;;;;;4931144;29;20210;-86
2021/03/24 06:36:01;;;;;;;17.17;10.70;;;5.50;90.30;;;;;;4916635;28;20232;-82
2021/03/24 06:38:47;;;;;;;15.03;8.90;;;5.40;90.10;;;;;;4930129;29;20667;-83
2021/03/24 06:41:52;;;;;;;17.33;9.80;;;5.50;90.00;;;;;;4922741;29;20302;-82
2021/03/24 06:44:46;;;;;;;14.30;9.13;;;5.60;90.10;;;;;;4909367;28;20217;-81
2021/03/24 06:47:21;;;;;;;18.00;10.73;;;5.60;89.60;;;;;;4867248;28;20237;-82
2021/03/24 06:49:54;;;;;;;19.00;11.17;;;5.70;89.80;;;;;;4927755;29;20257;-84
2021/03/24 06:53:01;;;;;;;16.60;10.53;;;5.80;89.70;;;;;;4939110;29;20225;-83
2021/03/24 07:08:30;;;;;;;20.27;10.83;;;6.20;88.20;;;;;;5018091;23;20351;-84
2021/03/24 07:11:11;;;;;;;16.63;9.73;;;6.10;88.10;;;;;;5001210;23;20309;-81
2021/03/24 07:14:14;;;;;;;21.70;11.03;;;6.30;87.90;;;;;;4985609;28;20500;-83
2021/03/24 07:17:01;;;;;;;16.87;11.13;;;6.40;87.90;;;;;;4935865;28;20606;-85
2021/03/24 07:20:04;;;;;;;16.37;11.23;;;6.50;87.40;;;;;;4972620;28;20234;-83
2021/03/24 07:22:52;;;;;;;16.33;10.37;;;6.60;87.20;;;;;;4973174;28;20212;-83
2021/03/24 07:25:52;;;;;;;18.83;11.00;;;6.60;87.10;;;;;;4961525;28;20432;-81
2021/03/24 07:28:41;;;;;;;21.53;12.00;;;6.70;86.70;;;;;;4948400;28;20239;-83
2021/03/24 07:31:45;;;;;;;17.83;10.80;;;6.70;86.90;;;;;;4958387;28;20212;-81
2021/03/24 07:34:25;;;;;;;16.70;11.53;;;6.60;86.90;;;;;;4968368;28;20218;-81
2021/03/24 07:37:26;;;;;;;23.10;12.40;;;6.70;87.20;;;;;;4944743;28;20211;-81
2021/03/24 07:40:30;;;;;;;16.57;11.33;;;6.70;86.80;;;;;;4987552;28;20594;-80
2021/03/24 07:43:11;;;;;;;22.53;12.10;;;6.80;86.70;;;;;;4956263;28;20224;-83
2021/03/24 07:45:54;;;;;;;16.27;11.87;;;6.90;86.60;;;;;;4965755;28;20218;-84
2021/03/24 07:48:54;;;;;;;19.60;12.30;;;7.10;86.30;;;;;;4960694;28;20225;-81
2021/03/24 07:51:47;;;;;;;20.63;12.50;;;7.30;85.90;;;;;;4981023;28;20208;-83
2021/03/24 07:54:20;;;;;;;21.40;12.03;;;7.50;85.80;;;;;;4978041;28;20752;-83
2021/03/24 07:56:57;;;;;;;20.33;11.90;;;7.60;85.30;;;;;;4947528;28;20216;-83
2021/03/24 07:59:36;;;;;;;20.07;12.23;;;7.80;84.60;;;;;;4981838;28;20196;-84
2021/03/24 08:02:37;;;;;;;19.57;11.53;;;7.90;84.40;;;;;;4988635;28;20616;-83
2021/03/24 08:05:38;;;;;;;20.57;11.53;;;8.00;84.50;;;;;;4934841;28;20608;-82
2021/03/24 08:08:18;;;;;;;21.13;11.60;;;7.70;84.40;;;;;;4960547;28;20276;-81
2021/03/24 08:10:54;;;;;;;16.90;10.80;;;7.80;84.70;;;;;;4984730;28;20206;-83
2021/03/24 08:13:53;;;;;;;18.00;11.00;;;8.00;84.50;;;;;;4985904;28;20605;-81
2021/03/24 08:16:48;;;;;;;20.60;11.20;;;7.90;84.20;;;;;;4954864;28;20248;-82
2021/03/24 08:19:43;;;;;;;17.00;11.43;;;7.90;84.20;;;;;;4970966;28;20457;-83
2021/03/24 08:22:50;;;;;;;21.67;12.13;;;7.90;84.20;;;;;;4962388;28;20204;-80
2021/03/24 08:25:35;;;;;;;17.13;11.87;;;8.00;84.20;;;;;;4943299;28;20518;-81
2021/03/24 08:28:38;;;;;;;19.70;11.97;;;8.20;83.90;;;;;;4953230;28;20215;-82
2021/03/24 08:31:25;;;;;;;15.47;11.00;;;8.00;84.10;;;;;;4962399;28;20208;-82
2021/03/24 08:34:11;;;;;;;20.13;11.80;;;8.00;83.80;;;;;;4969722;28;20691;-80
2021/03/24 08:37:09;;;;;;;19.27;10.70;;;8.20;83.90;;;;;;4919072;28;20452;-82
2021/03/24 08:40:03;;;;;;;18.53;10.90;;;8.20;84.00;;;;;;4974476;28;20204;-82
2021/03/24 08:43:00;;;;;;;14.67;9.33;;;8.00;84.10;;;;;;4959017;28;21210;-80
2021/03/24 08:45:31;;;;;;;16.17;10.00;;;8.10;83.70;;;;;;4942397;28;20597;-81
2021/03/24 08:48:02;;;;;;;17.73;9.80;;;8.10;83.70;;;;;;4938659;28;20237;-83
2021/03/24 08:50:42;;;;;;;15.97;9.97;;;7.90;83.80;;;;;;4950289;28;20231;-84
2021/03/24 08:53:20;;;;;;;15.00;9.57;;;7.90;83.90;;;;;;4967568;28;20204;-81
2021/03/24 08:55:59;;;;;;;13.37;9.70;;;7.90;83.90;;;;;;4945705;28;20514;-81
2021/03/24 08:58:59;;;;;;;14.80;9.87;;;8.20;84.20;;;;;;4986973;28;20228;-82
2021/03/24 09:02:05;;;;;;;16.13;9.37;;;8.50;83.40;;;;;;4974704;28;20273;-83
2021/03/24 09:05:20;;;;;;;17.90;10.47;;;8.70;83.30;;;;;;4945342;28;20705;-83
2021/03/24 09:08:21;;;;;;;18.33;10.67;;;8.70;83.10;;;;;;4931922;28;20264;-81
2021/03/24 09:11:04;;;;;;;18.30;11.83;;;8.60;82.90;;;;;;4967784;28;20223;-80
2021/03/24 09:13:36;;;;;;;18.03;10.90;;;8.70;82.80;;;;;;4982220;28;20199;-82
2021/03/24 09:16:44;;;;;;;13.13;9.53;;;8.90;82.80;;;;;;4942547;28;20228;-82
2021/03/24 09:19:22;;;;;;;19.37;12.60;;;8.80;82.30;;;;;;4977065;28;20390;-81
2021/03/24 09:22:01;;;;;;;16.40;10.50;;;8.60;82.60;;;;;;4979967;28;20224;-83
2021/03/24 09:25:02;;;;;;;15.97;11.20;;;8.80;82.70;;;;;;4965192;28;20802;-82
2021/03/24 09:28:03;;;;;;;18.10;11.80;;;8.70;82.40;;;;;;4931110;28;20325;-82
2021/03/24 09:31:19;;;;;;;17.30;10.80;;;8.80;82.20;;;;;;4972416;28;20220;-82
2021/03/24 09:33:52;;;;;;;18.70;9.70;;;8.70;82.10;;;;;;4913066;28;20215;-81
2021/03/24 09:36:37;;;;;;;20.17;11.17;;;8.90;82.10;;;;;;4934143;28;20387;-84
2021/03/24 09:39:17;;;;;;;16.63;10.93;;;8.50;82.40;;;;;;4955086;28;20203;-81
2021/03/24 09:41:52;;;;;;;20.77;10.53;;;8.70;82.90;;;;;;4960464;28;20204;-82
2021/03/24 09:44:26;;;;;;;19.13;12.60;;;9.00;82.70;;;;;;4962541;28;20589;-83
2021/03/24 09:46:56;;;;;;;18.47;12.90;;;9.10;82.00;;;;;;4913759;28;20239;-82
2021/03/24 09:49:33;;;;;;;20.27;12.33;;;9.00;82.20;;;;;;4977193;28;20265;-81
2021/03/24 09:52:22;;;;;;;18.57;13.00;;;9.00;81.90;;;;;;4966753;28;20217;-83
2021/03/24 09:55:21;;;;;;;16.50;11.17;;;9.10;81.80;;;;;;4958231;28;20205;-80
2021/03/24 09:58:09;;;;;;;21.83;12.00;;;8.90;81.80;;;;;;4916926;28;20722;-80
2021/03/24 10:00:42;;;;;;;19.33;12.53;;;8.90;82.10;;;;;;4973295;28;20203;-82
2021/03/24 10:03:21;;;;;;;18.30;12.67;;;8.90;82.00;;;;;;4978185;28;20220;-83
2021/03/24 10:05:54;;;;;;;18.13;12.87;;;9.00;81.70;;;;;;4944273;28;20218;-83
2021/03/24 10:08:30;;;;;;;26.20;14.03;;;9.00;81.50;;;;;;4945953;28;20239;-85
2021/03/24 10:11:04;;;;;;;17.40;11.57;;;9.10;81.30;;;;;;4969583;28;20247;-81
2021/03/24 10:13:39;;;;;;;20.17;12.10;;;9.10;81.10;;;;;;4968354;28;20207;-80
2021/03/24 10:16:15;;;;;;;22.73;16.17;;;9.00;80.90;;;;;;4947186;28;20252;-83
2021/03/24 10:18:50;;;;;;;19.77;12.67;;;8.70;81.10;;;;;;4964045;28;20620;-82
2021/03/24 10:21:23;;;;;;;18.77;14.50;;;8.70;81.30;;;;;;4974043;28;20274;-82
2021/03/24 10:23:55;;;;;;;19.87;13.27;;;8.70;81.40;;;;;;4975640;28;20213;-82
2021/03/24 10:26:31;;;;;;;21.90;13.57;;;8.70;81.20;;;;;;4932403;28;20259;-81
2021/03/24 10:29:02;;;;;;;21.33;12.93;;;8.90;81.50;;;;;;4951132;28;21361;-83
2021/03/24 10:31:37;;;;;;;17.00;12.50;;;8.90;81.40;;;;;;4965505;28;20200;-81
2021/03/24 10:34:12;;;;;;;16.00;12.60;;;9.00;81.20;;;;;;4967778;28;20281;-80
2021/03/24 10:36:47;;;;;;;18.13;13.33;;;9.00;81.00;;;;;;4941551;28;20221;-83
2021/03/24 10:39:22;;;;;;;16.90;12.50;;;9.10;81.10;;;;;;4987641;28;20199;-81
2021/03/24 10:41:56;;;;;;;16.27;11.50;;;9.20;81.00;;;;;;4980046;28;20278;-83
2021/03/24 10:44:37;;;;;;;14.80;10.93;;;9.10;80.70;;;;;;4969019;28;20210;-81
2021/03/24 10:47:27;;;;;;;15.67;10.53;;;9.10;80.90;;;;;;4924800;28;20678;-84
2021/03/24 10:50:13;;;;;;;16.17;9.77;;;9.00;80.90;;;;;;4974277;28;20212;-83
2021/03/24 10:52:43;;;;;;;13.93;10.40;;;8.90;81.00;;;;;;4975329;28;20209;-84
2021/03/24 10:55:17;;;;;;;14.50;9.70;;;8.90;81.20;;;;;;4956686;28;21088;-82
2021/03/24 10:57:55;;;;;;;13.77;9.63;;;9.00;80.90;;;;;;4953755;28;20232;-82
2021/03/24 11:00:33;;;;;;;18.80;12.43;;;9.20;81.20;;;;;;4969851;28;20567;-79
2021/03/24 11:03:13;;;;;;;16.27;12.00;;;9.40;81.10;;;;;;4977271;28;20522;-81
2021/03/24 11:05:53;;;;;;;19.37;12.37;;;9.30;80.90;;;;;;4956232;28;20474;-81
2021/03/24 11:08:37;;;;;;;20.30;13.83;;;8.70;81.30;;;;;;4966443;28;20217;-83
2021/03/24 11:11:12;;;;;;;21.97;14.70;;;8.50;81.80;;;;;;4960471;28;20216;-82
2021/03/24 11:13:47;;;;;;;16.63;11.80;;;8.60;82.00;;;;;;4967253;28;20204;-82
2021/03/24 11:16:26;;;;;;;15.87;9.03;;;8.60;81.70;;;;;;4930597;28;20807;-83
2021/03/24 11:19:11;;;;;;;17.40;13.03;;;8.50;81.50;;;;;;4956889;28;20836;-83
2021/03/24 11:21:47;;;;;;;17.37;12.37;;;8.50;81.90;;;;;;4973318;28;20209;-83
2021/03/24 11:24:22;;;;;;;16.43;11.73;;;8.60;81.60;;;;;;4981823;28;20185;-81
2021/03/24 11:27:29;;;;;;;17.67;12.57;;;8.70;81.50;;;;;;4946177;28;20413;-82
2021/03/24 11:30:11;;;;;;;18.27;12.93;;;8.80;81.30;;;;;;4978448;28;20223;-82
2021/03/24 11:32:46;;;;;;;16.33;11.87;;;8.80;81.50;;;;;;4976380;28;20190;-81
2021/03/24 11:35:32;;;;;;;20.53;12.73;;;8.90;81.50;;;;;;4975493;28;20219;-79
2021/03/24 11:38:13;;;;;;;19.77;12.37;;;9.00;81.50;;;;;;4959614;28;20231;-82
2021/03/24 11:40:45;;;;;;;17.30;12.83;;;9.00;81.40;;;;;;4976037;28;20203;-82
2021/03/24 11:43:19;;;;;;;15.77;11.37;;;9.10;81.40;;;;;;4966459;28;20209;-81
2021/03/24 11:45:48;;;;;;;19.90;11.13;;;9.10;81.20;;;;;;4937223;28;20251;-80
2021/03/24 11:48:33;;;;;;;17.43;11.20;;;9.00;81.70;;;;;;4922361;28;20278;-81
2021/03/24 11:51:11;;;;;;;22.20;11.03;;;9.10;82.00;;;;;;4975945;28;20213;-83
2021/03/24 11:54:01;;;;;;;14.83;11.37;;;9.00;82.10;;;;;;4982945;28;20500;-81
2021/03/24 11:56:51;;;;;;;15.17;10.97;;;9.10;82.20;;;;;;4931747;28;20341;-82
2021/03/24 11:59:26;;;;;;;17.83;10.67;;;9.10;81.70;;;;;;4972274;28;20232;-79
2021/03/24 12:02:06;;;;;;;15.80;11.33;;;9.00;81.60;;;;;;4969638;28;20217;-81
2021/03/24 12:07:49;;;;;;;17.43;11.53;;;8.70;81.60;;;;;;4894150;29;20275;-82
2021/03/24 12:10:27;;;;;;;12.20;10.23;;;8.90;81.70;;;;;;4902899;29;20221;-81
2021/03/24 12:13:14;;;;;;;16.00;11.47;;;9.10;81.60;;;;;;4909629;29;20210;-81
2021/03/24 12:15:43;;;;;;;18.40;11.70;;;9.10;81.30;;;;;;4890165;29;20228;-81
2021/03/24 12:18:15;;;;;;;19.90;12.77;;;9.00;81.40;;;;;;4885239;29;20346;-82
2021/03/24 12:20:51;;;;;;;17.30;11.37;;;9.00;81.60;;;;;;4920681;29;20210;-81
2021/03/24 12:23:21;;;;;;;14.77;11.47;;;9.00;81.40;;;;;;4901372;29;20665;-82
2021/03/24 12:25:54;;;;;;;17.40;11.43;;;8.90;81.40;;;;;;4870514;29;20229;-83
2021/03/24 12:28:29;;;;;;;15.00;10.47;;;8.80;81.50;;;;;;4872728;29;20868;-81
2021/03/24 12:31:10;;;;;;;14.40;11.20;;;8.70;81.30;;;;;;4896027;29;20721;-82
2021/03/24 12:33:46;;;;;;;15.77;11.57;;;8.70;81.50;;;;;;4901659;29;20236;-83
2021/03/24 12:36:21;;;;;;;16.80;12.17;;;8.70;81.60;;;;;;4868863;29;20232;-82
2021/03/24 12:38:57;;;;;;;16.07;11.37;;;8.70;81.40;;;;;;4888548;29;20214;-80
2021/03/24 12:41:30;;;;;;;19.10;11.67;;;8.60;81.60;;;;;;4894713;29;20724;-82
2021/03/24 12:44:24;;;;;;;19.07;12.40;;;8.50;81.70;;;;;;4900479;29;20206;-83
2021/03/24 12:46:55;;;;;;;18.17;11.10;;;8.40;81.50;;;;;;4863036;29;20226;-82
2021/03/24 12:49:30;;;;;;;13.20;11.63;;;8.50;81.80;;;;;;4896928;29;20262;-84
2021/03/24 12:52:10;;;;;;;15.90;11.57;;;8.50;81.50;;;;;;4895450;29;21006;-80
2021/03/24 12:54:38;;;;;;;18.37;13.13;;;8.60;81.70;;;;;;4902409;29;20596;-82
2021/03/24 12:57:32;;;;;;;17.07;13.73;;;8.60;81.60;;;;;;4863127;29;21197;-82
2021/03/24 13:00:40;;;;;;;23.07;12.63;;;8.80;81.60;;;;;;4898066;29;20209;-82
2021/03/24 13:03:49;;;;;;;15.37;11.87;;;8.90;81.60;;;;;;4897035;29;20301;-79
2021/03/24 13:06:46;;;;;;;16.63;11.57;;;8.90;81.70;;;;;;4877690;29;20692;-81
2021/03/24 13:09:25;;;;;;;16.07;11.80;;;8.80;81.70;;;;;;4913298;29;20195;-81
2021/03/24 13:12:05;;;;;;;16.77;12.07;;;8.80;81.70;;;;;;4911696;29;20210;-84
2021/03/24 13:15:12;;;;;;;16.10;12.23;;;8.80;81.80;;;;;;4913751;29;20186;-82
2021/03/24 13:17:56;;;;;;;17.03;11.43;;;8.90;81.80;;;;;;4899109;29;20261;-82
2021/03/24 13:20:36;;;;;;;15.43;11.10;;;8.90;81.60;;;;;;4914824;29;20219;-83
2021/03/24 13:23:17;;;;;;;16.80;12.10;;;9.00;81.80;;;;;;4915038;29;20337;-85
2021/03/24 13:25:53;;;;;;;17.57;11.80;;;9.00;81.80;;;;;;4892106;29;20290;-81
2021/03/24 13:28:44;;;;;;;16.10;11.63;;;9.00;81.50;;;;;;4894916;29;20235;-82
2021/03/24 13:31:18;;;;;;;17.70;12.53;;;9.20;81.60;;;;;;4917480;29;20226;-82
2021/03/24 13:34:23;;;;;;;16.40;12.83;;;9.30;81.70;;;;;;4918252;29;20210;-82
2021/03/24 13:37:15;;;;;;;21.00;12.47;;;9.20;81.20;;;;;;4860010;29;20219;-82
2021/03/24 13:39:49;;;;;;;17.23;13.10;;;9.40;81.40;;;;;;4912775;29;20211;-80
2021/03/24 13:42:30;;;;;;;19.10;12.03;;;9.60;81.40;;;;;;4916570;29;20468;-81
2021/03/24 13:45:09;;;;;;;17.80;11.83;;;9.80;80.90;;;;;;4894511;29;20634;-86
2021/03/24 13:47:41;;;;;;;17.70;11.47;;;9.90;80.40;;;;;;4893762;29;20239;-81
2021/03/24 13:50:20;;;;;;;17.67;11.83;;;10.10;80.20;;;;;;4907483;29;20197;-83
2021/03/24 13:52:52;;;;;;;14.17;11.70;;;10.20;80.30;;;;;;4900950;29;20455;-83
2021/03/24 13:56:06;;;;;;;17.83;12.43;;;10.30;80.20;;;;;;4889763;29;21249;-83
2021/03/24 13:59:02;;;;;;;16.27;11.53;;;10.30;80.00;;;;;;4884417;29;20699;-83